createdAt,value
2022-08-07T00:01:12.548Z,101490.15
2022-08-07T00:04:33.160Z,101490.34
2022-08-07T00:07:44.113Z,101488.27
2022-08-07T00:10:57.538Z,101497.90
2022-08-07T00:14:05.919Z,101497.25
2022-08-07T00:17:16.278Z,101497.44
2022-08-07T00:20:29.928Z,101498.86
2022-08-07T00:23:43.096Z,101504.42
2022-08-07T00:27:06.380Z,101508.32
2022-08-07T00:30:26.633Z,101505.47
2022-08-07T00:33:35.183Z,101507.01
2022-08-07T00:36:46.413Z,101501.00
2022-08-07T00:39:55.058Z,101501.37
2022-08-07T00:43:02.660Z,101505.13
2022-08-07T00:46:10.683Z,101500.53
2022-08-07T00:49:24.882Z,101501.58
2022-08-07T00:52:47.382Z,101502.13
2022-08-07T00:56:02.272Z,101503.55
2022-08-07T00:59:11.718Z,101502.81
2022-08-07T01:02:29.345Z,101507.51
2022-08-07T01:05:53.643Z,101501.53
2022-08-07T01:09:02.792Z,101506.88
2022-08-07T01:12:30.091Z,101511.83
2022-08-07T01:16:00.977Z,101504.07
2022-08-07T01:19:18.525Z,101503.59
2022-08-07T01:22:29.213Z,101511.08
2022-08-07T01:25:55.835Z,101497.25
2022-08-07T01:29:04.750Z,101499.21
2022-08-07T01:32:13.754Z,101503.86
2022-08-07T01:35:24.719Z,101500.22
2022-08-07T01:38:45.665Z,101496.57
2022-08-07T01:42:36.903Z,101497.97
2022-08-07T03:04:29.538Z,101521.43
2022-08-07T03:08:05.421Z,101520.42
2022-08-07T03:11:12.442Z,101524.14
2022-08-07T03:14:24.849Z,101529.93
2022-08-07T03:17:36.275Z,101522.98
2022-08-07T03:21:08.505Z,101520.47
2022-08-07T03:24:27.288Z,101517.56
2022-08-07T03:27:58.780Z,101523.84
2022-08-07T03:31:24.697Z,101521.43
2022-08-07T03:35:01.018Z,101518.84
2022-08-07T03:38:29.831Z,101524.75
2022-08-07T03:41:47.741Z,101525.05
2022-08-07T03:45:01.386Z,101518.07
2022-08-07T03:48:10.050Z,101520.66
2022-08-07T03:51:20.773Z,101524.08
2022-08-07T03:54:35.641Z,101522.31
2022-08-07T03:58:32.941Z,101522.02
2022-08-07T04:01:27.599Z,101525.22
2022-08-07T04:04:38.663Z,101518.27
2022-08-07T04:07:50.392Z,101518.86
2022-08-07T04:12:20.741Z,101527.99
2022-08-07T04:14:37.412Z,101525.55
2022-08-07T04:18:58.033Z,101522.80
2022-08-07T04:21:16.417Z,101520.67
2022-08-07T04:24:30.715Z,101521.02
2022-08-07T04:27:44.283Z,101525.36
2022-08-07T04:30:58.668Z,101522.98
2022-08-07T04:34:16.662Z,101520.81
2022-08-07T04:37:25.182Z,101519.88
2022-08-07T04:40:44.067Z,101519.92
2022-08-07T04:44:13.260Z,101524.73
2022-08-07T04:47:57.364Z,101520.26
2022-08-07T04:51:14.125Z,101526.93
2022-08-07T04:54:33.393Z,101528.48
2022-08-07T04:58:10.523Z,101536.97
2022-08-07T05:01:29.872Z,101534.45
2022-08-07T05:04:58.261Z,101529.61
2022-08-07T05:08:13.831Z,101531.86
2022-08-07T05:11:56.863Z,101531.52
2022-08-07T05:15:22.942Z,101535.08
2022-08-07T05:18:41.510Z,101530.74
2022-08-07T05:22:00.793Z,101535.13
2022-08-07T05:25:26.114Z,101531.84
2022-08-07T05:28:49.935Z,101523.04
2022-08-07T05:32:00.818Z,101527.30
2022-08-07T05:35:13.479Z,101525.64
2022-08-07T05:39:00.058Z,101532.81
2022-08-07T05:42:01.551Z,101526.84
2022-08-07T05:45:26.169Z,101528.84
2022-08-07T05:48:58.016Z,101523.11
2022-08-07T05:52:08.539Z,101533.41
2022-08-07T05:55:23.558Z,101535.91
2022-08-07T05:58:52.830Z,101541.17
2022-08-07T06:02:04.288Z,101550.77
2022-08-07T06:05:16.116Z,101539.42
2022-08-07T06:08:31.407Z,101551.55
2022-08-07T06:11:40.727Z,101541.56
2022-08-07T06:14:49.933Z,101543.06
2022-08-07T06:17:56.180Z,101540.69
2022-08-07T06:22:15.600Z,101540.77
2022-08-07T06:24:52.708Z,101544.39
2022-08-07T06:28:10.051Z,101546.39
2022-08-07T06:31:38.322Z,101539.00
2022-08-07T06:34:49.218Z,101545.46
2022-08-07T06:37:58.345Z,101550.77
2022-08-07T06:41:12.990Z,101558.80
2022-08-07T06:44:24.137Z,101557.98
2022-08-07T06:47:38.622Z,101567.42
2022-08-07T06:50:49.310Z,101571.61
2022-08-07T06:55:27.765Z,101564.40
2022-08-07T06:57:39.560Z,101567.76
2022-08-07T07:00:59.002Z,101573.81
2022-08-07T07:04:27.973Z,101582.69
2022-08-07T07:07:59.148Z,101579.35
2022-08-07T07:11:13.078Z,101572.43
2022-08-07T07:14:23.625Z,101574.92
2022-08-07T07:17:39.390Z,101574.69
2022-08-07T07:20:57.911Z,101572.72
2022-08-07T07:24:12.554Z,101570.77
2022-08-07T07:27:26.061Z,101570.77
2022-08-07T07:30:53.146Z,101568.22
2022-08-07T07:34:06.135Z,101568.71
2022-08-07T07:37:44.512Z,101572.31
2022-08-07T07:40:46.042Z,101567.58
2022-08-07T07:44:16.960Z,101560.94
2022-08-07T07:47:27.014Z,101572.64
2022-08-07T07:50:38.859Z,101563.50
2022-08-07T07:53:51.759Z,101569.65
2022-08-07T07:57:02.985Z,101564.89
2022-08-07T08:00:20.991Z,101560.38
2022-08-07T08:04:10.797Z,101579.27
2022-08-07T08:07:08.799Z,101578.25
2022-08-07T08:10:38.015Z,101564.64
2022-08-07T08:13:54.402Z,101563.88
2022-08-07T08:17:55.413Z,101554.40
2022-08-07T08:20:36.822Z,101549.98
2022-08-07T08:24:03.823Z,101548.80
2022-08-07T08:27:16.610Z,101554.52
2022-08-07T08:30:25.907Z,101561.11
2022-08-07T08:33:35.429Z,101561.61
2022-08-07T08:36:49.365Z,101562.28
2022-08-07T08:40:16.324Z,101583.97
2022-08-07T08:43:42.937Z,101568.58
2022-08-07T08:47:07.670Z,101577.92
2022-08-07T08:50:35.131Z,101564.11
2022-08-07T08:53:53.966Z,101563.80
2022-08-07T08:57:06.372Z,101554.09
2022-08-07T09:00:16.877Z,101549.69
2022-08-07T09:03:48.109Z,101562.77
2022-08-07T09:07:04.050Z,101564.69
2022-08-07T09:10:18.873Z,101556.04
2022-08-07T09:13:39.654Z,101551.23
2022-08-07T09:16:58.961Z,101555.78
2022-08-07T09:20:35.547Z,101545.28
2022-08-07T09:24:53.623Z,101555.35
2022-08-07T09:27:59.779Z,101559.25
2022-08-07T09:31:17.412Z,101548.91
2022-08-07T09:34:31.033Z,101543.48
2022-08-07T09:37:53.653Z,101546.78
2022-08-07T09:41:07.553Z,101550.78
2022-08-07T09:44:52.187Z,101542.30
2022-08-07T09:48:12.251Z,101545.81
2022-08-07T09:52:10.066Z,101547.48
2022-08-07T09:55:29.601Z,101529.62
2022-08-07T09:59:13.719Z,101534.46
2022-08-07T10:02:39.048Z,101536.15
2022-08-07T10:06:25.875Z,101525.25
2022-08-07T10:10:02.604Z,101524.44
2022-08-07T10:13:55.266Z,101512.52
2022-08-07T10:17:16.700Z,101503.80
2022-08-07T10:20:36.521Z,101517.70
2022-08-07T10:24:08.568Z,101523.16
2022-08-07T10:27:46.017Z,101506.09
2022-08-07T10:31:11.344Z,101500.53
2022-08-07T10:34:39.973Z,101498.06
2022-08-07T10:38:20.827Z,101503.86
2022-08-07T10:41:46.268Z,101499.15
2022-08-07T10:45:04.138Z,101480.55
2022-08-07T10:48:34.945Z,101493.42
2022-08-07T10:52:02.027Z,101487.95
2022-08-07T10:55:37.238Z,101471.44
2022-08-07T10:59:08.370Z,101482.92
2022-08-07T11:02:32.752Z,101472.78
2022-08-07T11:05:51.383Z,101481.50
2022-08-07T11:09:04.526Z,101472.02
2022-08-07T11:12:32.108Z,101467.22
2022-08-07T11:15:42.530Z,101465.26
2022-08-07T11:19:11.210Z,101462.61
2022-08-07T11:22:37.246Z,101458.89
2022-08-07T11:26:06.520Z,101441.44
2022-08-07T11:29:42.131Z,101433.55
2022-08-07T11:32:54.182Z,101431.97
2022-08-07T11:36:25.218Z,101441.38
2022-08-07T11:40:01.273Z,101427.02
2022-08-07T11:43:16.741Z,101432.75
2022-08-07T11:47:00.522Z,101421.84
2022-08-07T11:50:32.226Z,101419.46
2022-08-07T11:54:01.747Z,101421.80
2022-08-07T11:57:59.886Z,101431.50
2022-08-07T12:01:02.101Z,101423.83
2022-08-07T12:04:26.989Z,101421.87
2022-08-07T12:07:39.899Z,101424.75
2022-08-07T12:11:08.393Z,101422.30
2022-08-07T12:14:23.038Z,101410.81
2022-08-07T12:17:58.926Z,101399.22
2022-08-07T12:21:56.052Z,101404.31
2022-08-07T12:26:00.929Z,101402.03
2022-08-07T12:28:52.991Z,101387.28
2022-08-07T12:32:12.400Z,101385.97
2022-08-07T12:35:22.154Z,101387.20
2022-08-07T12:38:42.554Z,101385.09
2022-08-07T12:41:53.348Z,101384.12
2022-08-07T12:45:04.299Z,101391.44
2022-08-07T12:48:27.675Z,101387.97
2022-08-07T12:51:51.490Z,101384.31
2022-08-07T12:55:24.943Z,101388.66
2022-08-07T12:58:56.900Z,101372.16
2022-08-07T13:02:22.194Z,101375.14
2022-08-07T13:06:02.521Z,101363.94
2022-08-07T13:10:19.879Z,101353.77
2022-08-07T13:12:58.216Z,101354.49
2022-08-07T13:16:17.223Z,101359.20
2022-08-07T13:19:46.261Z,101353.81
2022-08-07T13:24:01.469Z,101344.39
2022-08-07T13:26:46.173Z,101342.30
2022-08-07T13:30:00.112Z,101343.86
2022-08-07T13:34:30.139Z,101339.39
2022-08-07T13:37:10.728Z,101341.02
2022-08-07T13:40:36.667Z,101339.86
2022-08-07T13:43:56.133Z,101338.22
2022-08-07T13:47:09.565Z,101329.89
2022-08-07T13:50:32.719Z,101326.59
2022-08-07T13:54:00.635Z,101324.47
2022-08-07T13:57:14.551Z,101318.84
2022-08-07T14:00:54.021Z,101323.64
2022-08-07T14:04:09.687Z,101309.46
2022-08-07T14:07:17.839Z,101310.77
2022-08-07T14:10:28.251Z,101310.26
2022-08-07T14:13:45.135Z,101302.91
2022-08-07T14:17:00.158Z,101283.61
2022-08-07T14:22:39.682Z,101288.14
2022-08-07T14:24:05.389Z,101300.54
2022-08-07T14:27:16.190Z,101289.19
2022-08-07T14:30:52.222Z,101293.84
2022-08-07T14:34:01.280Z,101283.83
2022-08-07T14:37:17.884Z,101280.00
2022-08-07T14:40:35.077Z,101275.81
2022-08-07T14:43:58.983Z,101276.66
2022-08-07T14:47:16.545Z,101277.34
2022-08-07T14:50:26.241Z,101267.13
2022-08-07T14:54:03.626Z,101273.52
2022-08-07T15:00:44.647Z,101271.34
2022-08-07T15:04:05.696Z,101274.06
2022-08-07T15:10:58.646Z,101262.67
2022-08-07T15:14:10.839Z,101255.95
2022-08-07T15:17:28.446Z,101254.50
2022-08-07T15:20:55.059Z,101257.37
2022-08-07T15:25:13.907Z,101261.70
2022-08-07T15:27:39.426Z,101257.16
2022-08-07T15:31:09.315Z,101267.22
2022-08-07T15:34:17.617Z,101262.34
2022-08-07T15:38:01.306Z,101260.69
2022-08-07T15:41:23.019Z,101254.80
2022-08-07T15:44:30.185Z,101247.93
2022-08-07T15:48:00.245Z,101247.72
2022-08-07T15:51:11.952Z,101251.00
2022-08-07T15:54:21.065Z,101246.39
2022-08-07T15:57:39.994Z,101240.56
2022-08-07T16:00:56.416Z,101242.94
2022-08-07T16:04:14.683Z,101243.84
2022-08-07T16:08:30.889Z,101230.09
2022-08-07T16:11:03.576Z,101239.70
2022-08-07T16:14:19.137Z,101231.38
2022-08-07T16:18:02.917Z,101228.03
2022-08-07T16:22:04.290Z,101230.91
2022-08-07T16:24:52.862Z,101229.01
2022-08-07T16:29:18.426Z,101225.80
2022-08-07T16:32:00.631Z,101228.86
2022-08-07T16:35:59.412Z,101239.16
2022-08-07T16:39:16.657Z,101221.88
2022-08-07T16:42:44.759Z,101224.63
2022-08-07T16:47:04.433Z,101213.23
2022-08-07T16:50:20.404Z,101207.20
2022-08-07T16:54:12.231Z,101202.48
2022-08-07T16:58:02.095Z,101201.25
2022-08-07T17:01:34.407Z,101208.97
2022-08-07T17:04:58.583Z,101215.73
2022-08-07T17:08:09.249Z,101221.94
2022-08-07T17:11:28.300Z,101223.22
2022-08-07T17:15:04.225Z,101210.58
2022-08-07T17:18:19.619Z,101211.03
2022-08-07T17:21:50.914Z,101214.08
2022-08-07T17:25:15.228Z,101208.30
2022-08-07T17:28:35.637Z,101212.34
2022-08-07T17:32:02.641Z,101210.88
2022-08-07T17:35:50.502Z,101214.34
2022-08-07T17:38:56.182Z,101211.25
2022-08-07T17:42:08.765Z,101208.19
2022-08-07T17:45:27.952Z,101216.28
2022-08-07T17:48:46.374Z,101212.42
2022-08-07T17:52:01.134Z,101216.59
2022-08-07T17:55:54.076Z,101218.22
2022-08-07T17:58:51.854Z,101209.14
2022-08-07T18:02:08.795Z,101214.93
2022-08-07T18:06:03.456Z,101216.42
2022-08-07T18:09:05.718Z,101218.59
2022-08-07T18:12:28.724Z,101217.20
2022-08-07T18:15:53.479Z,101223.44
2022-08-07T18:21:09.615Z,101217.59
2022-08-07T18:22:45.737Z,101224.72
2022-08-07T18:26:15.241Z,101211.26
2022-08-07T18:30:06.642Z,101221.66
2022-08-07T18:33:38.994Z,101216.03
2022-08-07T18:38:57.523Z,101224.72
2022-08-07T18:41:08.178Z,101217.42
2022-08-07T18:44:45.966Z,101218.19
2022-08-07T18:48:09.468Z,101216.93
2022-08-07T18:52:34.673Z,101223.63
2022-08-07T18:55:40.494Z,101211.20
2022-08-07T18:59:01.130Z,101212.86
2022-08-07T19:02:36.090Z,101213.14
2022-08-07T19:06:03.718Z,101213.63
2022-08-07T19:09:56.293Z,101216.63
2022-08-07T19:12:58.260Z,101208.53
2022-08-07T19:17:01.360Z,101213.75
2022-08-07T19:20:04.525Z,101215.08
2022-08-07T19:23:19.458Z,101213.87
2022-08-07T19:27:16.781Z,101210.74
2022-08-07T19:30:57.947Z,101219.81
2022-08-07T19:33:58.128Z,101218.89
2022-08-07T19:37:17.565Z,101217.98
2022-08-07T19:40:30.407Z,101221.78
2022-08-07T19:43:52.137Z,101223.31
2022-08-07T19:47:14.296Z,101220.95
2022-08-07T19:50:43.940Z,101219.89
2022-08-07T19:54:31.357Z,101222.96
2022-08-07T19:58:02.926Z,101220.80
2022-08-07T20:00:57.196Z,101226.91
2022-08-07T20:04:08.357Z,101232.47
2022-08-07T20:07:23.894Z,101233.55
2022-08-07T20:10:54.693Z,101227.74
2022-08-07T20:14:07.321Z,101239.01
2022-08-07T20:17:22.653Z,101242.03
2022-08-07T20:20:31.710Z,101239.86
2022-08-07T20:23:48.400Z,101245.58
2022-08-07T20:27:04.244Z,101250.15
2022-08-07T20:30:22.535Z,101248.45
2022-08-07T20:33:36.924Z,101241.22
2022-08-07T20:36:51.677Z,101243.16
2022-08-07T20:40:05.381Z,101243.44
2022-08-07T20:43:32.743Z,101250.03
2022-08-07T20:46:43.816Z,101241.80
2022-08-07T20:50:01.711Z,101244.31
2022-08-07T20:53:17.215Z,101251.61
2022-08-07T20:56:41.021Z,101253.22
2022-08-07T21:00:06.283Z,101243.69
2022-08-07T21:03:25.601Z,101244.64
2022-08-07T21:06:35.456Z,101246.67
2022-08-07T21:09:52.934Z,101257.16
2022-08-07T21:13:15.478Z,101252.02
2022-08-07T21:16:29.279Z,101250.89
2022-08-07T21:19:51.730Z,101248.14
2022-08-07T21:23:15.370Z,101248.47
2022-08-07T21:26:42.912Z,101248.80
2022-08-07T21:30:02.694Z,101256.03
2022-08-07T21:33:21.692Z,101260.41
2022-08-07T21:36:37.486Z,101255.73
2022-08-07T21:39:56.538Z,101252.47
2022-08-07T21:43:06.549Z,101249.54
2022-08-07T21:46:25.210Z,101252.98
2022-08-07T21:50:02.588Z,101252.81
2022-08-07T21:53:17.582Z,101249.72
2022-08-07T21:56:39.627Z,101251.02
2022-08-07T22:00:03.972Z,101249.20
2022-08-07T22:03:18.857Z,101254.06
2022-08-07T22:06:56.615Z,101254.28
2022-08-07T22:10:07.455Z,101258.67
2022-08-07T22:13:24.262Z,101254.28
2022-08-07T22:16:55.910Z,101258.54
2022-08-07T22:20:22.617Z,101255.63
2022-08-07T22:23:40.218Z,101261.80
2022-08-07T22:27:00.201Z,101261.66
2022-08-07T22:30:17.000Z,101256.87
2022-08-07T22:33:53.117Z,101265.98
2022-08-07T22:37:12.407Z,101264.97
2022-08-07T22:40:28.087Z,101265.19
2022-08-07T22:43:42.375Z,101269.22
2022-08-07T22:47:16.846Z,101267.78
2022-08-07T22:50:54.911Z,101274.91
2022-08-07T22:54:16.226Z,101280.92
2022-08-07T22:57:47.002Z,101279.19
2022-08-07T23:01:15.464Z,101290.13
2022-08-07T23:04:58.204Z,101286.34
2022-08-07T23:08:46.180Z,101288.00
2022-08-07T23:12:32.689Z,101293.04
2022-08-07T23:16:05.433Z,101288.61
2022-08-07T23:19:51.256Z,101290.91
2022-08-07T23:24:05.888Z,101288.11
2022-08-07T23:28:21.879Z,101284.60
2022-08-07T23:32:49.146Z,101281.86
2022-08-07T23:35:16.611Z,101284.07
2022-08-07T23:38:54.564Z,101287.49
2022-08-07T23:42:31.748Z,101283.54
2022-08-07T23:46:03.795Z,101288.91
2022-08-07T23:49:49.975Z,101290.27
2022-08-07T23:53:16.698Z,101283.67
2022-08-07T23:56:35.144Z,101286.75
